sensor_id;sensor_type;location;lat;lon;timestamp;temperature;humidity
72919;SHT30;68407;55.694;26.994;2023-08-06T00:00:41;22;84.4
72919;SHT30;68407;55.694;26.994;2023-08-06T00:05:55;21.6;85.7
72919;SHT30;68407;55.694;26.994;2023-08-06T00:11:05;21.5;86.4
72919;SHT30;68407;55.694;26.994;2023-08-06T00:15:41;22;84.8
72919;SHT30;68407;55.694;26.994;2023-08-06T00:20:33;22.4;83.7
72919;SHT30;68407;55.694;26.994;2023-08-06T00:26:05;23;81.5
72919;SHT30;68407;55.694;26.994;2023-08-06T00:30:27;22.9;81.2
72919;SHT30;68407;55.694;26.994;2023-08-06T00:35:43;22.6;82
72919;SHT30;68407;55.694;26.994;2023-08-06T00:40:33;23.1;80.4
72919;SHT30;68407;55.694;26.994;2023-08-06T00:45:53;23.2;79.8
72919;SHT30;68407;55.694;26.994;2023-08-06T00:50:35;23.3;79.5
72919;SHT30;68407;55.694;26.994;2023-08-06T00:55:33;23.2;79.4
72919;SHT30;68407;55.694;26.994;2023-08-06T01:01:05;23.4;78.7
72919;SHT30;68407;55.694;26.994;2023-08-06T01:05:55;23.6;78
72919;SHT30;68407;55.694;26.994;2023-08-06T01:10:40;23.5;78.3
72919;SHT30;68407;55.694;26.994;2023-08-06T01:15:46;23.7;77.4
72919;SHT30;68407;55.694;26.994;2023-08-06T01:21:05;23.7;77.2
72919;SHT30;68407;55.694;26.994;2023-08-06T01:25:43;23.7;77.4
72919;SHT30;68407;55.694;26.994;2023-08-06T01:30:35;23.4;78
72919;SHT30;68407;55.694;26.994;2023-08-06T01:36:05;23.4;78.1
72919;SHT30;68407;55.694;26.994;2023-08-06T01:40:55;23.6;77.5
72919;SHT30;68407;55.694;26.994;2023-08-06T01:46:05;23.7;77.3
72919;SHT30;68407;55.694;26.994;2023-08-06T01:50:55;23.4;78.2
72919;SHT30;68407;55.694;26.994;2023-08-06T01:55:33;23.2;78.9
72919;SHT30;68407;55.694;26.994;2023-08-06T02:00:33;22.9;79.8
72919;SHT30;68407;55.694;26.994;2023-08-06T02:06:05;22.9;80.3
72919;SHT30;68407;55.694;26.994;2023-08-06T02:10:53;23;80.1
72919;SHT30;68407;55.694;26.994;2023-08-06T02:15:53;22.7;80.9
72919;SHT30;68407;55.694;26.994;2023-08-06T02:21:05;22.9;80.8
72919;SHT30;68407;55.694;26.994;2023-08-06T02:25:56;22.7;81.2
72919;SHT30;68407;55.694;26.994;2023-08-06T02:30:27;22.7;81.6
72919;SHT30;68407;55.694;26.994;2023-08-06T02:35:33;22.5;82.1
72919;SHT30;68407;55.694;26.994;2023-08-06T02:41:05;22.4;82.5
72919;SHT30;68407;55.694;26.994;2023-08-06T02:46:05;22.8;81.5
72919;SHT30;68407;55.694;26.994;2023-08-06T02:51:05;22.9;81.2
72919;SHT30;68407;55.694;26.994;2023-08-06T02:56:05;22.6;82.2
72919;SHT30;68407;55.694;26.994;2023-08-06T03:00:29;22.6;82.4
72919;SHT30;68407;55.694;26.994;2023-08-06T03:06:05;22.7;82
72919;SHT30;68407;55.694;26.994;2023-08-06T03:10:29;23.1;81
72919;SHT30;68407;55.694;26.994;2023-08-06T03:16:05;23.3;80.5
72919;SHT30;68407;55.694;26.994;2023-08-06T03:20:51;23.5;80
72919;SHT30;68407;55.694;26.994;2023-08-06T03:25:39;23.5;80.2
72919;SHT30;68407;55.694;26.994;2023-08-06T03:31:05;23.8;79.7
72919;SHT30;68407;55.694;26.994;2023-08-06T03:35:27;23.9;79
72919;SHT30;68407;55.694;26.994;2023-08-06T03:40:34;24.1;78.7
72919;SHT30;68407;55.694;26.994;2023-08-06T03:45:49;24.3;78.2
72919;SHT30;68407;55.694;26.994;2023-08-06T03:50:49;24.4;78.8
72919;SHT30;68407;55.694;26.994;2023-08-06T03:55:51;24.5;78.8
72919;SHT30;68407;55.694;26.994;2023-08-06T04:00:58;24.8;77.9
72919;SHT30;68407;55.694;26.994;2023-08-06T04:05:49;25.1;76.5
72919;SHT30;68407;55.694;26.994;2023-08-06T04:10:41;25.3;75.9
72919;SHT30;68407;55.694;26.994;2023-08-06T04:15:53;25.4;75.4
72919;SHT30;68407;55.694;26.994;2023-08-06T04:20:25;25.5;74.7
72919;SHT30;68407;55.694;26.994;2023-08-06T04:25:27;25.5;75.4
72919;SHT30;68407;55.694;26.994;2023-08-06T04:30:49;25.6;74.7
72919;SHT30;68407;55.694;26.994;2023-08-06T04:36:05;25.7;74
72919;SHT30;68407;55.694;26.994;2023-08-06T04:40:45;26;73.4
72919;SHT30;68407;55.694;26.994;2023-08-06T04:45:27;26.1;73.3
72919;SHT30;68407;55.694;26.994;2023-08-06T04:50:51;26.2;72.7
72919;SHT30;68407;55.694;26.994;2023-08-06T04:55:41;26.4;72.2
72919;SHT30;68407;55.694;26.994;2023-08-06T05:00:41;26.5;71.6
72919;SHT30;68407;55.694;26.994;2023-08-06T05:05:55;26.6;71.4
72919;SHT30;68407;55.694;26.994;2023-08-06T05:11:03;26.6;71.4
72919;SHT30;68407;55.694;26.994;2023-08-06T05:15:35;26.9;70.8
72919;SHT30;68407;55.694;26.994;2023-08-06T05:20:25;27;70.6
72919;SHT30;68407;55.694;26.994;2023-08-06T05:26:03;27.1;70.1
72919;SHT30;68407;55.694;26.994;2023-08-06T05:30:53;27.2;70.5
72919;SHT30;68407;55.694;26.994;2023-08-06T05:35:37;27.3;70
72919;SHT30;68407;55.694;26.994;2023-08-06T05:40:43;27.5;69.8
72919;SHT30;68407;55.694;26.994;2023-08-06T05:45:55;27.6;69.6
72919;SHT30;68407;55.694;26.994;2023-08-06T05:50:41;27.7;69.4
72919;SHT30;68407;55.694;26.994;2023-08-06T05:55:33;27.7;69.4
72919;SHT30;68407;55.694;26.994;2023-08-06T06:00:55;27.8;69
72919;SHT30;68407;55.694;26.994;2023-08-06T06:05:55;27.9;68.6
72919;SHT30;68407;55.694;26.994;2023-08-06T06:11:05;28;68.6
72919;SHT30;68407;55.694;26.994;2023-08-06T06:15:46;28;68.7
72919;SHT30;68407;55.694;26.994;2023-08-06T06:20:45;28.1;69.1
72919;SHT30;68407;55.694;26.994;2023-08-06T06:25:27;28.2;68.1
72919;SHT30;68407;55.694;26.994;2023-08-06T06:31:05;28.3;68.3
72919;SHT30;68407;55.694;26.994;2023-08-06T06:35:55;28.3;68.5
72919;SHT30;68407;55.694;26.994;2023-08-06T06:40:55;28.3;68.7
72919;SHT30;68407;55.694;26.994;2023-08-06T06:46:05;28.4;69.5
72919;SHT30;68407;55.694;26.994;2023-08-06T06:50:51;28.5;68.8
72919;SHT30;68407;55.694;26.994;2023-08-06T06:55:33;28.7;69
72919;SHT30;68407;55.694;26.994;2023-08-06T07:00:27;28.8;68.7
72919;SHT30;68407;55.694;26.994;2023-08-06T07:06:05;28.9;68.4
72919;SHT30;68407;55.694;26.994;2023-08-06T07:10:58;28.9;68.2
72919;SHT30;68407;55.694;26.994;2023-08-06T07:16:05;29;67.8
72919;SHT30;68407;55.694;26.994;2023-08-06T07:21:05;29.1;67.3
72919;SHT30;68407;55.694;26.994;2023-08-06T07:25:47;29.1;66.9
72919;SHT30;68407;55.694;26.994;2023-08-06T07:30:51;29;66.5
72919;SHT30;68407;55.694;26.994;2023-08-06T07:35:55;29.1;66.4
72919;SHT30;68407;55.694;26.994;2023-08-06T07:41:03;29.2;66.3
72919;SHT30;68407;55.694;26.994;2023-08-06T07:45:51;29.3;66
72919;SHT30;68407;55.694;26.994;2023-08-06T07:50:25;29.3;65.4
72919;SHT30;68407;55.694;26.994;2023-08-06T07:56:03;29.3;65.2
72919;SHT30;68407;55.694;26.994;2023-08-06T08:00:55;29.4;65
72919;SHT30;68407;55.694;26.994;2023-08-06T08:05:25;29.4;64.4
72919;SHT30;68407;55.694;26.994;2023-08-06T08:10:27;29.4;64.2
72919;SHT30;68407;55.694;26.994;2023-08-06T08:15:56;29.5;63.9
72919;SHT30;68407;55.694;26.994;2023-08-06T08:20:49;29.5;63.8
72919;SHT30;68407;55.694;26.994;2023-08-06T08:25:37;29.7;63.6
72919;SHT30;68407;55.694;26.994;2023-08-06T08:30:27;29.7;63.5
72919;SHT30;68407;55.694;26.994;2023-08-06T08:35:25;29.7;63.4
72919;SHT30;68407;55.694;26.994;2023-08-06T08:40:35;29.7;63.2
72919;SHT30;68407;55.694;26.994;2023-08-06T08:45:26;29.9;62.8
72919;SHT30;68407;55.694;26.994;2023-08-06T08:50:35;30;62.2
72919;SHT30;68407;55.694;26.994;2023-08-06T08:55:51;30;61.5
72919;SHT30;68407;55.694;26.994;2023-08-06T09:01:05;30.1;61.1
72919;SHT30;68407;55.694;26.994;2023-08-06T09:05:55;30.2;60.9
72919;SHT30;68407;55.694;26.994;2023-08-06T09:10:27;30.1;60.8
72919;SHT30;68407;55.694;26.994;2023-08-06T09:15:51;30.2;60.9
72919;SHT30;68407;55.694;26.994;2023-08-06T09:20:41;30.3;60.5
72919;SHT30;68407;55.694;26.994;2023-08-06T09:25:27;30.4;60.2
72919;SHT30;68407;55.694;26.994;2023-08-06T09:30:55;30.4;61
72919;SHT30;68407;55.694;26.994;2023-08-06T09:36:08;30.6;60.4
72919;SHT30;68407;55.694;26.994;2023-08-06T09:40:33;30.7;59.9
72919;SHT30;68407;55.694;26.994;2023-08-06T09:45:45;30.8;59.3
72919;SHT30;68407;55.694;26.994;2023-08-06T09:51:03;30.9;59.3
72919;SHT30;68407;55.694;26.994;2023-08-06T09:55:55;30.8;59.2
72919;SHT30;68407;55.694;26.994;2023-08-06T10:00:39;30.9;59.4
72919;SHT30;68407;55.694;26.994;2023-08-06T10:05:37;31;59.5
72919;SHT30;68407;55.694;26.994;2023-08-06T10:11:05;31.2;59.2
72919;SHT30;68407;55.694;26.994;2023-08-06T10:15:31;31.2;58.9
72919;SHT30;68407;55.694;26.994;2023-08-06T10:20:27;31.3;59.1
72919;SHT30;68407;55.694;26.994;2023-08-06T10:25:55;31.6;59.2
72919;SHT30;68407;55.694;26.994;2023-08-06T10:30:53;31.9;58.6
72919;SHT30;68407;55.694;26.994;2023-08-06T10:36:05;31.9;58.4
72919;SHT30;68407;55.694;26.994;2023-08-06T10:40:31;32;58.3
72919;SHT30;68407;55.694;26.994;2023-08-06T10:45:33;32;58
72919;SHT30;68407;55.694;26.994;2023-08-06T10:50:33;32;57.7
72919;SHT30;68407;55.694;26.994;2023-08-06T10:56:11;31.9;57.8
72919;SHT30;68407;55.694;26.994;2023-08-06T11:00:55;31.9;58.2
72919;SHT30;68407;55.694;26.994;2023-08-06T11:05:53;32.1;57.8
72919;SHT30;68407;55.694;26.994;2023-08-06T11:11:11;32;57.8
72919;SHT30;68407;55.694;26.994;2023-08-06T11:15:53;32.1;57.6
72919;SHT30;68407;55.694;26.994;2023-08-06T11:20:31;32.1;57.9
72919;SHT30;68407;55.694;26.994;2023-08-06T11:25:57;32.4;57.6
72919;SHT30;68407;55.694;26.994;2023-08-06T11:31:05;32.6;57.5
72919;SHT30;68407;55.694;26.994;2023-08-06T13:55:41;32;61.1
72919;SHT30;68407;55.694;26.994;2023-08-06T14:00:57;32;60.5
72919;SHT30;68407;55.694;26.994;2023-08-06T14:05:33;32.2;59.7
72919;SHT30;68407;55.694;26.994;2023-08-06T14:10:27;32.3;59.6
72919;SHT30;68407;55.694;26.994;2023-08-06T14:16:07;32;59.8
72919;SHT30;68407;55.694;26.994;2023-08-06T14:20:57;32.1;59.6
72919;SHT30;68407;55.694;26.994;2023-08-06T14:25:43;32.5;59.1
72919;SHT30;68407;55.694;26.994;2023-08-06T14:30:47;32.7;58.1
72919;SHT30;68407;55.694;26.994;2023-08-06T14:36:07;32.6;58.3
72919;SHT30;68407;55.694;26.994;2023-08-06T14:40:33;32.6;59
72919;SHT30;68407;55.694;26.994;2023-08-06T14:45:39;32.6;59.2
72919;SHT30;68407;55.694;26.994;2023-08-06T14:50:57;32.6;59.1
72919;SHT30;68407;55.694;26.994;2023-08-06T14:56:07;32.8;58.9
72919;SHT30;68407;55.694;26.994;2023-08-06T15:01:07;32.7;58.6
72919;SHT30;68407;55.694;26.994;2023-08-06T15:05:48;32.7;59.1
72919;SHT30;68407;55.694;26.994;2023-08-06T15:10:27;32.8;59.1
72919;SHT30;68407;55.694;26.994;2023-08-06T15:15:27;33;59.2
72919;SHT30;68407;55.694;26.994;2023-08-06T15:21:05;33.2;58.5
72919;SHT30;68407;55.694;26.994;2023-08-06T15:25:57;33.1;58.2
72919;SHT30;68407;55.694;26.994;2023-08-06T15:30:57;33;58.2
72919;SHT30;68407;55.694;26.994;2023-08-06T15:36:05;33.1;58.4
72919;SHT30;68407;55.694;26.994;2023-08-06T15:40:27;33.1;58.6
72919;SHT30;68407;55.694;26.994;2023-08-06T15:45:27;33;58.3
72919;SHT30;68407;55.694;26.994;2023-08-06T15:50:49;32.8;58.1
72919;SHT30;68407;55.694;26.994;2023-08-06T15:55:51;32.7;58.4
72919;SHT30;68407;55.694;26.994;2023-08-06T16:01:07;32.6;58.3
72919;SHT30;68407;55.694;26.994;2023-08-06T16:06:07;32.7;58.1
72919;SHT30;68407;55.694;26.994;2023-08-06T16:11:07;32.6;58.1
72919;SHT30;68407;55.694;26.994;2023-08-06T16:15:57;32.5;58
72919;SHT30;68407;55.694;26.994;2023-08-06T16:20:51;32.5;58.3
72919;SHT30;68407;55.694;26.994;2023-08-06T16:25:57;32.5;58.3
72919;SHT30;68407;55.694;26.994;2023-08-06T16:31:07;32.4;58
72919;SHT30;68407;55.694;26.994;2023-08-06T16:35:51;32.2;58.3
72919;SHT30;68407;55.694;26.994;2023-08-06T16:40:27;32.1;58.1
72919;SHT30;68407;55.694;26.994;2023-08-06T16:46:07;32;58.4
72919;SHT30;68407;55.694;26.994;2023-08-06T16:50:51;31.8;58.5
72919;SHT30;68407;55.694;26.994;2023-08-06T16:55:33;31.8;58.6
72919;SHT30;68407;55.694;26.994;2023-08-06T17:00:37;31.6;58.9
72919;SHT30;68407;55.694;26.994;2023-08-06T17:05:35;31.4;59.2
72919;SHT30;68407;55.694;26.994;2023-08-06T17:10:45;31.2;59.3
72919;SHT30;68407;55.694;26.994;2023-08-06T17:15:29;31.1;59.8
72919;SHT30;68407;55.694;26.994;2023-08-06T17:21:07;30.9;60.3
72919;SHT30;68407;55.694;26.994;2023-08-06T17:25:35;30.7;60.9
72919;SHT30;68407;55.694;26.994;2023-08-06T17:30:33;30.4;61.4
72919;SHT30;68407;55.694;26.994;2023-08-06T17:35:42;30.1;61.7
72919;SHT30;68407;55.694;26.994;2023-08-06T17:40:35;29.9;62.5
72919;SHT30;68407;55.694;26.994;2023-08-06T17:45:57;29.6;62.4
72919;SHT30;68407;55.694;26.994;2023-08-06T17:51:07;29.4;62.7
72919;SHT30;68407;55.694;26.994;2023-08-06T17:55:33;29.3;63.6
72919;SHT30;68407;55.694;26.994;2023-08-06T18:00:27;29.3;63.8
72919;SHT30;68407;55.694;26.994;2023-08-06T18:06:07;29.2;64
72919;SHT30;68407;55.694;26.994;2023-08-06T18:10:51;29.2;64.2
72919;SHT30;68407;55.694;26.994;2023-08-06T18:15:27;29.1;64.2
72919;SHT30;68407;55.694;26.994;2023-08-06T18:20:51;28.9;64.6
72919;SHT30;68407;55.694;26.994;2023-08-06T18:25:57;28.9;64.6
72919;SHT30;68407;55.694;26.994;2023-08-06T18:30:27;28.7;64.8
72919;SHT30;68407;55.694;26.994;2023-08-06T18:35:27;28.5;65.5
72919;SHT30;68407;55.694;26.994;2023-08-06T18:41:07;28.5;65.5
72919;SHT30;68407;55.694;26.994;2023-08-06T18:45:51;28.2;65
72919;SHT30;68407;55.694;26.994;2023-08-06T18:50:51;28.1;66
72919;SHT30;68407;55.694;26.994;2023-08-06T18:55:47;28.1;65.9
72919;SHT30;68407;55.694;26.994;2023-08-06T19:01:05;28.1;66.1
72919;SHT30;68407;55.694;26.994;2023-08-06T19:05:27;27.6;66.1
72919;SHT30;68407;55.694;26.994;2023-08-06T19:10:27;27.5;67
72919;SHT30;68407;55.694;26.994;2023-08-06T19:15:57;27.5;67.1
72919;SHT30;68407;55.694;26.994;2023-08-06T19:20:57;27.4;67.2
72919;SHT30;68407;55.694;26.994;2023-08-06T19:26:05;27.5;67.6
72919;SHT30;68407;55.694;26.994;2023-08-06T19:30:27;27.6;67.6
72919;SHT30;68407;55.694;26.994;2023-08-06T19:35:33;27.6;67.6
72919;SHT30;68407;55.694;26.994;2023-08-06T19:40:33;27.6;67.7
72919;SHT30;68407;55.694;26.994;2023-08-06T19:46:07;27.6;67.7
72919;SHT30;68407;55.694;26.994;2023-08-06T19:50:57;27.5;68
72919;SHT30;68407;55.694;26.994;2023-08-06T19:55:49;27.6;68
72919;SHT30;68407;55.694;26.994;2023-08-06T20:01:07;27.6;67.7
72919;SHT30;68407;55.694;26.994;2023-08-06T20:05:59;27.6;67.5
72919;SHT30;68407;55.694;26.994;2023-08-06T20:10:33;27.6;67.6
72919;SHT30;68407;55.694;26.994;2023-08-06T20:15:37;27.6;67.6
72919;SHT30;68407;55.694;26.994;2023-08-06T20:21:05;27.6;67.7
72919;SHT30;68407;55.694;26.994;2023-08-06T20:26:08;27.5;67.7
72919;SHT30;68407;55.694;26.994;2023-08-06T20:31:07;27.4;68.2
72919;SHT30;68407;55.694;26.994;2023-08-06T20:36:07;27.3;68.6
72919;SHT30;68407;55.694;26.994;2023-08-06T20:40:55;27.2;68.8
72919;SHT30;68407;55.694;26.994;2023-08-06T20:45:33;27.2;69.2
72919;SHT30;68407;55.694;26.994;2023-08-06T20:50:57;27.3;69.2
72919;SHT30;68407;55.694;26.994;2023-08-06T20:56:07;27.4;69.3
72919;SHT30;68407;55.694;26.994;2023-08-06T21:00:51;27.4;69.2
72919;SHT30;68407;55.694;26.994;2023-08-06T21:05:33;27.3;69.2
72919;SHT30;68407;55.694;26.994;2023-08-06T21:11:07;27.1;69.7
72919;SHT30;68407;55.694;26.994;2023-08-06T21:15:57;27.2;69.6
72919;SHT30;68407;55.694;26.994;2023-08-06T21:20:27;27.2;69.4
72919;SHT30;68407;55.694;26.994;2023-08-06T21:25:41;27.1;69.6
72919;SHT30;68407;55.694;26.994;2023-08-06T21:30:41;27;69.6
72919;SHT30;68407;55.694;26.994;2023-08-06T21:35:35;27;69.6
72919;SHT30;68407;55.694;26.994;2023-08-06T21:41:08;27;69.6
72919;SHT30;68407;55.694;26.994;2023-08-06T21:45:47;27.1;69.3
72919;SHT30;68407;55.694;26.994;2023-08-06T21:50:27;27.2;69.2
72919;SHT30;68407;55.694;26.994;2023-08-06T21:55:55;27.1;69.4
72919;SHT30;68407;55.694;26.994;2023-08-06T22:00:35;27;69.7
72919;SHT30;68407;55.694;26.994;2023-08-06T22:05:41;26.9;70
72919;SHT30;68407;55.694;26.994;2023-08-06T22:10:54;27;69.8
72919;SHT30;68407;55.694;26.994;2023-08-06T22:16:05;26.9;69.9
72919;SHT30;68407;55.694;26.994;2023-08-06T22:20:50;26.9;69.9
72919;SHT30;68407;55.694;26.994;2023-08-06T22:25:26;26.9;69.9
72919;SHT30;68407;55.694;26.994;2023-08-06T22:31:05;27;69.7
72919;SHT30;68407;55.694;26.994;2023-08-06T22:35:25;26.9;69.8
72919;SHT30;68407;55.694;26.994;2023-08-06T22:40:39;26.9;70
72919;SHT30;68407;55.694;26.994;2023-08-06T22:45:25;26.9;70
72919;SHT30;68407;55.694;26.994;2023-08-06T22:50:55;26.9;69.9
72919;SHT30;68407;55.694;26.994;2023-08-06T22:55:25;26.9;69.9
72919;SHT30;68407;55.694;26.994;2023-08-06T23:00:45;26.9;69.8
72919;SHT30;68407;55.694;26.994;2023-08-06T23:06:05;26.9;70
72919;SHT30;68407;55.694;26.994;2023-08-06T23:10:55;26.8;70.2
72919;SHT30;68407;55.694;26.994;2023-08-06T23:15:33;26.9;70.1
72919;SHT30;68407;55.694;26.994;2023-08-06T23:20:31;27;70
72919;SHT30;68407;55.694;26.994;2023-08-06T23:26:05;27;69.9
72919;SHT30;68407;55.694;26.994;2023-08-06T23:30:25;27;70
72919;SHT30;68407;55.694;26.994;2023-08-06T23:35:25;26.8;70.6
72919;SHT30;68407;55.694;26.994;2023-08-06T23:40:41;26.8;71
72919;SHT30;68407;55.694;26.994;2023-08-06T23:45:55;26.7;71.1
72919;SHT30;68407;55.694;26.994;2023-08-06T23:51:05;26.7;71.6
72919;SHT30;68407;55.694;26.994;2023-08-06T23:55:47;26.7;72
